createdAt,value
2019-05-22T00:01:45.985Z,85.38
2019-05-22T00:04:15.372Z,85.56
2019-05-22T00:06:47.972Z,85.50
2019-05-22T00:09:20.478Z,85.86
2019-05-22T00:11:49.701Z,85.83
2019-05-22T00:14:17.495Z,85.84
2019-05-22T00:16:47.017Z,85.93
2019-05-22T00:19:15.190Z,86.12
2019-05-22T00:21:42.971Z,86.24
2019-05-22T00:24:12.367Z,86.54
2019-05-22T00:26:41.856Z,86.65
2019-05-22T00:29:10.711Z,86.58
2019-05-22T00:31:38.479Z,86.61
2019-05-22T00:34:06.208Z,86.69
2019-05-22T00:36:34.007Z,86.76
2019-05-22T00:39:03.453Z,86.53
2019-05-22T00:41:32.834Z,86.53
2019-05-22T00:44:01.993Z,86.43
2019-05-22T00:46:30.103Z,86.42
2019-05-22T00:48:58.613Z,86.21
2019-05-22T00:51:36.913Z,85.90
2019-05-22T00:54:25.595Z,85.74
2019-05-22T00:56:58.081Z,85.65
2019-05-22T00:59:36.440Z,85.63
2019-05-22T01:02:11.606Z,85.44
2019-05-22T01:04:43.331Z,85.49
2019-05-22T01:07:21.749Z,85.32
2019-05-22T01:09:51.756Z,85.38
2019-05-22T01:12:27.139Z,85.27
2019-05-22T01:14:56.654Z,85.33
2019-05-22T01:17:25.151Z,85.35
2019-05-22T01:19:54.575Z,85.23
2019-05-22T01:22:23.913Z,85.57
2019-05-22T01:24:53.475Z,85.74
2019-05-22T01:27:23.269Z,85.91
2019-05-22T01:29:51.190Z,86.01
2019-05-22T01:32:23.065Z,86.09
2019-05-22T01:34:51.616Z,86.13
2019-05-22T01:37:19.370Z,86.23
2019-05-22T01:40:02.699Z,86.43
2019-05-22T01:42:32.679Z,86.63
2019-05-22T01:45:06.590Z,86.90
2019-05-22T01:47:42.558Z,87.05
2019-05-22T01:50:13.316Z,87.44
2019-05-22T01:52:42.022Z,88.24
2019-05-22T01:55:10.057Z,88.50
2019-05-22T01:57:38.892Z,88.75
2019-05-22T02:00:09.644Z,89.13
2019-05-22T02:02:37.645Z,89.63
2019-05-22T02:05:06.362Z,89.85
2019-05-22T02:07:34.372Z,90.32
2019-05-22T02:10:02.759Z,90.48
2019-05-22T02:12:36.394Z,90.47
2019-05-22T02:15:06.996Z,90.57
2019-05-22T02:17:35.506Z,90.99
2019-05-22T02:20:05.526Z,91.10
2019-05-22T02:22:34.143Z,91.53
2019-05-22T02:25:02.758Z,91.79
2019-05-22T02:27:31.784Z,91.92
2019-05-22T02:30:02.350Z,92.37
2019-05-22T02:32:31.699Z,92.52
2019-05-22T02:35:00.926Z,92.56
2019-05-22T02:37:30.086Z,92.13
2019-05-22T02:39:57.805Z,91.70
2019-05-22T02:42:26.921Z,91.07
2019-05-22T02:44:55.701Z,90.78
2019-05-22T02:47:25.261Z,90.59
2019-05-22T02:49:53.074Z,90.65
2019-05-22T02:52:22.104Z,90.59
2019-05-22T02:54:49.928Z,90.18
2019-05-22T02:57:17.914Z,90.53
2019-05-22T02:59:45.701Z,90.46
2019-05-22T03:02:14.239Z,90.37
2019-05-22T03:05:00.560Z,90.37
2019-05-22T03:07:28.734Z,90.59
2019-05-22T03:09:56.834Z,90.53
2019-05-22T03:12:26.435Z,90.60
2019-05-22T03:14:54.745Z,90.97
2019-05-22T03:17:28.051Z,91.10
2019-05-22T03:19:56.833Z,90.82
2019-05-22T03:22:39.965Z,90.81
2019-05-22T03:25:09.558Z,90.92
2019-05-22T03:27:47.223Z,91.04
2019-05-22T03:30:17.767Z,90.82
2019-05-22T03:32:47.878Z,91.14
2019-05-22T03:35:15.649Z,91.29
2019-05-22T03:37:43.405Z,91.30
2019-05-22T03:40:11.481Z,91.05
2019-05-22T03:42:39.295Z,91.16
2019-05-22T03:45:07.760Z,90.98
2019-05-22T03:47:36.210Z,90.93
2019-05-22T03:50:06.274Z,90.83
2019-05-22T03:52:34.814Z,90.82
2019-05-22T03:55:02.554Z,90.44
2019-05-22T03:57:30.970Z,90.67
2019-05-22T03:59:58.774Z,90.50
2019-05-22T04:02:26.508Z,90.59
2019-05-22T04:04:54.839Z,90.48
2019-05-22T04:07:24.203Z,90.56
2019-05-22T04:09:52.853Z,90.61
2019-05-22T04:12:20.766Z,90.67
2019-05-22T04:14:49.022Z,90.70
2019-05-22T04:17:17.674Z,90.57
2019-05-22T04:19:50.537Z,90.34
2019-05-22T04:22:15.300Z,89.99
2019-05-22T04:24:43.219Z,89.53
2019-05-22T04:27:12.629Z,89.27
2019-05-22T04:29:40.887Z,89.21
2019-05-22T04:32:12.899Z,88.87
2019-05-22T04:34:41.782Z,88.94
2019-05-22T04:37:10.773Z,89.01
2019-05-22T04:39:38.973Z,88.67
2019-05-22T04:42:07.836Z,88.92
2019-05-22T04:44:36.163Z,89.12
2019-05-22T04:47:03.968Z,89.15
2019-05-22T04:49:31.808Z,89.11
2019-05-22T04:51:59.744Z,88.48
2019-05-22T04:54:27.499Z,88.59
2019-05-22T04:56:55.250Z,88.16
2019-05-22T04:59:24.138Z,87.99
2019-05-22T05:01:51.883Z,88.33
2019-05-22T05:04:19.699Z,88.55
2019-05-22T05:06:48.059Z,88.61
2019-05-22T05:09:16.301Z,88.50
2019-05-22T05:11:44.212Z,88.65
2019-05-22T05:14:12.070Z,87.98
2019-05-22T05:16:39.829Z,87.66
2019-05-22T05:19:07.582Z,87.65
2019-05-22T05:21:35.367Z,87.63
2019-05-22T05:24:03.394Z,87.95
2019-05-22T05:26:32.783Z,88.02
2019-05-22T05:29:00.959Z,88.26
2019-05-22T05:31:28.703Z,88.19
2019-05-22T05:34:10.549Z,87.86
2019-05-22T05:36:38.441Z,87.72
2019-05-22T05:39:08.316Z,87.59
2019-05-22T05:41:36.106Z,87.28
2019-05-22T05:44:04.630Z,87.22
2019-05-22T05:46:32.353Z,87.50
2019-05-22T05:49:01.151Z,87.35
2019-05-22T05:51:31.305Z,87.34
2019-05-22T05:54:01.291Z,87.92
2019-05-22T05:56:30.367Z,87.89
2019-05-22T05:58:59.598Z,87.81
2019-05-22T06:01:31.997Z,88.07
2019-05-22T06:04:00.521Z,88.08
2019-05-22T06:06:31.391Z,88.01
2019-05-22T06:08:59.682Z,88.40
2019-05-22T06:11:35.750Z,88.32
2019-05-22T06:14:04.120Z,88.30
2019-05-22T06:16:50.229Z,88.44
2019-05-22T06:19:18.364Z,88.24
2019-05-22T06:21:47.994Z,88.06
2019-05-22T06:24:27.821Z,87.85
2019-05-22T06:26:57.979Z,87.35
2019-05-22T06:29:28.188Z,87.60
2019-05-22T06:32:04.726Z,87.25
2019-05-22T06:34:32.457Z,87.53
2019-05-22T06:37:02.127Z,87.61
2019-05-22T06:39:30.383Z,87.36
2019-05-22T06:41:58.289Z,86.72
2019-05-22T06:44:28.559Z,86.50
2019-05-22T06:46:57.163Z,86.79
2019-05-22T06:49:32.494Z,86.91
2019-05-22T06:52:00.254Z,86.96
2019-05-22T06:54:28.077Z,87.00
2019-05-22T06:56:55.878Z,87.10
2019-05-22T06:59:23.588Z,87.11
2019-05-22T07:01:59.322Z,86.72
2019-05-22T07:04:21.313Z,86.61
2019-05-22T07:06:49.134Z,86.59
2019-05-22T07:09:18.559Z,86.42
2019-05-22T07:11:47.114Z,86.61
2019-05-22T07:14:15.709Z,86.30
2019-05-22T07:16:43.572Z,86.49
2019-05-22T07:19:12.890Z,86.59
2019-05-22T07:21:40.872Z,86.41
2019-05-22T07:24:08.665Z,86.36
2019-05-22T07:26:37.298Z,86.25
2019-05-22T07:29:05.293Z,85.79
2019-05-22T07:31:33.315Z,86.03
2019-05-22T07:34:01.131Z,85.65
2019-05-22T07:36:29.452Z,85.69
2019-05-22T07:38:58.258Z,85.68
2019-05-22T07:41:26.007Z,85.65
2019-05-22T07:43:53.817Z,85.25
2019-05-22T07:46:21.541Z,84.32
2019-05-22T07:48:49.300Z,84.57
2019-05-22T07:51:17.519Z,84.80
2019-05-22T07:53:45.310Z,85.34
2019-05-22T07:56:13.942Z,85.00
2019-05-22T07:58:42.052Z,85.02
2019-05-22T08:01:10.718Z,85.30
2019-05-22T08:03:38.639Z,83.67
2019-05-22T08:06:06.959Z,82.84
2019-05-22T08:08:36.526Z,82.43
2019-05-22T08:11:05.695Z,82.00
2019-05-22T08:13:33.650Z,81.73
2019-05-22T08:16:01.801Z,81.80
2019-05-22T08:18:31.525Z,82.00
2019-05-22T08:20:59.386Z,82.78
2019-05-22T08:23:27.170Z,82.83
2019-05-22T08:25:56.115Z,83.26
2019-05-22T08:28:24.843Z,83.02
2019-05-22T08:30:52.622Z,83.05
2019-05-22T08:33:20.959Z,83.12
2019-05-22T08:35:49.193Z,83.22
2019-05-22T08:38:17.057Z,83.32
2019-05-22T08:40:45.447Z,82.58
2019-05-22T08:43:13.295Z,82.37
2019-05-22T08:45:41.081Z,82.48
2019-05-22T08:48:09.306Z,82.78
2019-05-22T08:50:37.832Z,82.52
2019-05-22T08:53:06.357Z,81.95
2019-05-22T08:55:35.524Z,82.28
2019-05-22T08:58:04.290Z,81.94
2019-05-22T09:00:32.734Z,82.08
2019-05-22T09:03:01.478Z,81.61
2019-05-22T09:05:29.235Z,81.74
2019-05-22T09:07:57.013Z,80.91
2019-05-22T09:10:26.069Z,80.78
2019-05-22T09:12:54.188Z,80.67
2019-05-22T09:15:22.247Z,81.34
2019-05-22T09:17:50.098Z,81.67
2019-05-22T09:20:18.390Z,81.70
2019-05-22T09:22:47.165Z,81.71
2019-05-22T09:25:16.442Z,81.50
2019-05-22T09:27:44.996Z,81.11
2019-05-22T09:30:13.219Z,80.55
2019-05-22T09:32:40.958Z,80.05
2019-05-22T09:35:08.713Z,79.45
2019-05-22T09:37:36.644Z,79.16
2019-05-22T09:40:05.452Z,79.18
2019-05-22T09:42:34.515Z,79.43
2019-05-22T09:45:03.738Z,78.92
2019-05-22T09:47:31.562Z,79.06
2019-05-22T09:49:59.969Z,79.29
2019-05-22T09:52:28.163Z,79.36
2019-05-22T09:54:56.275Z,79.20
2019-05-22T09:57:24.189Z,79.46
2019-05-22T09:59:51.972Z,79.78
2019-05-22T10:02:19.786Z,79.85
2019-05-22T10:04:47.955Z,79.82
2019-05-22T10:07:15.806Z,80.22
2019-05-22T10:09:44.221Z,80.21
2019-05-22T10:12:12.133Z,80.11
2019-05-22T10:14:41.073Z,79.89
2019-05-22T10:17:10.237Z,79.26
2019-05-22T10:19:38.555Z,79.06
2019-05-22T10:22:07.978Z,78.05
2019-05-22T10:24:36.109Z,78.24
2019-05-22T10:27:05.532Z,78.83
2019-05-22T10:29:33.796Z,78.83
2019-05-22T10:32:01.515Z,77.73
2019-05-22T10:34:29.326Z,77.43
2019-05-22T10:36:57.106Z,77.27
2019-05-22T10:39:25.915Z,77.35
2019-05-22T10:41:53.666Z,78.05
2019-05-22T10:44:22.482Z,78.33
2019-05-22T10:46:50.236Z,78.58
2019-05-22T10:49:18.002Z,79.16
2019-05-22T10:51:46.278Z,78.50
2019-05-22T10:54:14.283Z,78.32
2019-05-22T10:56:42.032Z,78.47
2019-05-22T10:59:10.001Z,78.84
2019-05-22T11:01:37.855Z,78.59
2019-05-22T11:04:05.620Z,78.52
2019-05-22T11:06:33.480Z,78.65
2019-05-22T11:09:01.575Z,78.69
2019-05-22T11:11:29.429Z,78.72
2019-05-22T11:14:01.786Z,79.14
2019-05-22T11:16:26.997Z,78.47
2019-05-22T11:18:55.130Z,78.24
2019-05-22T11:21:22.923Z,78.59
2019-05-22T11:23:52.849Z,78.05
2019-05-22T11:26:20.154Z,77.81
2019-05-22T11:28:48.001Z,78.27
2019-05-22T11:31:16.244Z,78.38
2019-05-22T11:33:44.481Z,77.72
2019-05-22T11:36:13.252Z,78.00
2019-05-22T11:38:41.082Z,78.32
2019-05-22T11:41:08.829Z,77.94
2019-05-22T11:43:36.639Z,78.00
2019-05-22T11:46:05.745Z,78.14
2019-05-22T11:48:33.508Z,78.50
2019-05-22T11:51:01.481Z,78.98
2019-05-22T11:53:29.253Z,78.89
2019-05-22T11:55:56.998Z,78.80
2019-05-22T11:58:24.780Z,78.74
2019-05-22T12:00:52.561Z,78.81
2019-05-22T12:03:20.491Z,78.38
2019-05-22T12:05:48.271Z,78.47
2019-05-22T12:08:16.529Z,78.16
2019-05-22T12:10:44.860Z,77.01
2019-05-22T12:13:12.759Z,76.62
2019-05-22T12:15:40.691Z,76.83
2019-05-22T12:18:08.898Z,77.11
2019-05-22T12:20:37.197Z,77.04
2019-05-22T12:23:04.947Z,76.95
2019-05-22T12:25:32.690Z,77.62
2019-05-22T12:28:00.479Z,77.76
2019-05-22T12:30:28.225Z,78.13
2019-05-22T12:32:56.303Z,77.95
2019-05-22T12:35:24.227Z,78.67
2019-05-22T12:37:51.973Z,79.08
2019-05-22T12:40:20.289Z,79.65
2019-05-22T12:42:48.514Z,79.69
2019-05-22T12:45:16.346Z,79.84
2019-05-22T12:47:45.481Z,80.21
2019-05-22T12:50:15.604Z,80.35
2019-05-22T12:52:44.226Z,80.12
2019-05-22T12:55:12.061Z,80.89
2019-05-22T12:57:39.868Z,80.40
2019-05-22T13:00:08.492Z,80.58
2019-05-22T13:02:36.483Z,80.65
2019-05-22T13:05:05.368Z,80.85
2019-05-22T13:07:33.611Z,81.15
2019-05-22T13:10:01.751Z,80.99
2019-05-22T13:12:30.003Z,81.10
2019-05-22T13:15:08.938Z,81.06
2019-05-22T13:17:27.834Z,81.22
2019-05-22T13:19:55.737Z,81.26
2019-05-22T13:22:24.249Z,81.27
2019-05-22T13:24:52.009Z,81.17
2019-05-22T13:27:20.059Z,80.79
2019-05-22T13:29:48.494Z,80.43
2019-05-22T13:32:16.268Z,80.36
2019-05-22T13:34:44.126Z,80.55
2019-05-22T13:37:11.898Z,81.10
2019-05-22T13:39:39.748Z,81.32
2019-05-22T13:42:07.529Z,81.55
2019-05-22T13:44:35.444Z,81.06
2019-05-22T13:47:04.422Z,80.50
2019-05-22T13:49:34.354Z,80.01
2019-05-22T13:52:02.123Z,80.09
2019-05-22T13:54:30.426Z,80.37
2019-05-22T13:56:58.714Z,80.60
2019-05-22T13:59:27.108Z,80.73
2019-05-22T14:01:54.937Z,80.89
2019-05-22T14:04:22.730Z,81.22
2019-05-22T14:06:50.610Z,81.43
2019-05-22T14:09:21.473Z,81.78
2019-05-22T14:11:50.121Z,82.01
2019-05-22T14:14:17.950Z,82.02
2019-05-22T14:16:48.935Z,82.21
2019-05-22T14:19:15.155Z,82.22
2019-05-22T14:21:50.055Z,82.09
2019-05-22T14:24:12.328Z,81.70
2019-05-22T14:26:40.144Z,81.68
2019-05-22T14:29:07.989Z,81.59
2019-05-22T14:31:35.745Z,80.95
2019-05-22T14:34:04.515Z,81.44
2019-05-22T14:36:32.470Z,81.57
2019-05-22T14:39:01.825Z,81.84
2019-05-22T14:41:29.615Z,81.58
2019-05-22T14:43:57.383Z,81.40
2019-05-22T14:46:25.152Z,81.80
2019-05-22T14:48:52.944Z,81.52
2019-05-22T14:51:22.678Z,81.43
2019-05-22T14:53:52.308Z,81.74
2019-05-22T14:56:20.110Z,81.81
2019-05-22T14:58:48.067Z,82.06
2019-05-22T15:01:15.940Z,82.41
2019-05-22T15:03:43.795Z,82.38
2019-05-22T15:06:11.718Z,82.72
2019-05-22T15:08:39.479Z,82.70
2019-05-22T15:11:07.352Z,82.95
2019-05-22T15:13:35.861Z,82.91
2019-05-22T15:16:03.594Z,82.59
2019-05-22T15:18:32.350Z,82.05
2019-05-22T15:21:01.566Z,82.03
2019-05-22T15:23:31.228Z,82.05
2019-05-22T15:25:59.617Z,81.95
2019-05-22T15:28:27.382Z,82.17
2019-05-22T15:30:55.219Z,82.29
2019-05-22T15:33:23.011Z,82.18
2019-05-22T15:35:51.217Z,82.26
2019-05-22T15:38:19.258Z,82.43
2019-05-22T15:40:47.513Z,82.36
2019-05-22T15:43:15.731Z,81.84
2019-05-22T15:45:43.484Z,82.05
2019-05-22T15:48:13.996Z,82.02
2019-05-22T15:50:42.445Z,81.87
2019-05-22T15:53:14.891Z,81.67
2019-05-22T15:55:42.614Z,81.39
2019-05-22T15:58:10.528Z,81.85
2019-05-22T16:00:39.067Z,81.78
2019-05-22T16:03:13.851Z,81.80
2019-05-22T16:05:42.251Z,81.60
2019-05-22T16:08:10.171Z,81.65
2019-05-22T16:10:38.033Z,81.34
2019-05-22T16:13:05.836Z,81.12
2019-05-22T16:15:34.823Z,80.96
2019-05-22T16:18:11.744Z,80.46
2019-05-22T16:20:32.096Z,80.50
2019-05-22T16:22:59.855Z,80.12
2019-05-22T16:25:29.028Z,79.80
2019-05-22T16:27:56.777Z,79.96
2019-05-22T16:30:25.635Z,79.88
2019-05-22T16:32:53.685Z,79.88
2019-05-22T16:35:21.600Z,79.94
2019-05-22T16:37:49.355Z,79.68
2019-05-22T16:40:17.327Z,79.79
2019-05-22T16:42:45.083Z,79.53
2019-05-22T16:45:13.967Z,79.32
2019-05-22T16:47:41.884Z,78.89
2019-05-22T16:50:09.908Z,79.03
2019-05-22T16:52:37.657Z,78.84
2019-05-22T16:55:07.645Z,78.81
2019-05-22T16:57:36.030Z,78.76
2019-05-22T17:00:04.928Z,78.65
2019-05-22T17:02:33.541Z,78.44
2019-05-22T17:05:02.212Z,78.23
2019-05-22T17:07:30.420Z,78.14
2019-05-22T17:09:58.197Z,78.20
2019-05-22T17:12:26.317Z,78.18
2019-05-22T17:14:54.537Z,77.98
2019-05-22T17:17:22.367Z,77.96
2019-05-22T17:19:50.475Z,78.08
2019-05-22T17:22:18.226Z,77.75
2019-05-22T17:24:46.020Z,77.91
2019-05-22T17:27:15.439Z,77.96
2019-05-22T17:29:44.252Z,78.37
2019-05-22T17:32:12.710Z,77.98
2019-05-22T17:34:40.545Z,77.91
2019-05-22T17:37:10.703Z,77.99
2019-05-22T17:39:39.515Z,77.73
2019-05-22T17:42:08.056Z,77.45
2019-05-22T17:44:36.629Z,77.17
2019-05-22T17:47:06.740Z,76.99
2019-05-22T17:49:34.754Z,76.75
2019-05-22T17:52:03.442Z,76.52
2019-05-22T17:54:31.929Z,76.54
2019-05-22T17:56:59.901Z,76.61
2019-05-22T17:59:28.229Z,76.86
2019-05-22T18:01:56.033Z,76.86
2019-05-22T18:04:24.037Z,76.73
2019-05-22T18:06:52.242Z,76.43
2019-05-22T18:09:20.298Z,76.59
2019-05-22T18:11:48.086Z,76.47
2019-05-22T18:14:15.803Z,76.38
2019-05-22T18:16:43.611Z,76.31
2019-05-22T18:19:11.411Z,76.13
2019-05-22T18:21:40.036Z,75.75
2019-05-22T18:24:09.018Z,75.74
2019-05-22T18:26:36.766Z,75.72
2019-05-22T18:29:04.585Z,75.89
2019-05-22T18:31:32.556Z,75.88
2019-05-22T18:34:00.312Z,75.91
2019-05-22T18:36:28.061Z,76.02
2019-05-22T18:38:55.860Z,76.11
2019-05-22T18:41:23.604Z,76.25
2019-05-22T18:43:51.925Z,76.28
2019-05-22T18:46:19.705Z,76.26
2019-05-22T18:48:48.304Z,76.12
2019-05-22T18:51:16.704Z,75.66
2019-05-22T18:53:44.571Z,75.22
2019-05-22T18:56:13.420Z,74.74
2019-05-22T18:58:43.183Z,74.67
2019-05-22T19:01:10.968Z,74.49
2019-05-22T19:03:38.714Z,74.50
2019-05-22T19:06:06.489Z,74.77
2019-05-22T19:08:34.326Z,74.94
2019-05-22T19:11:04.195Z,75.05
2019-05-22T19:13:34.663Z,75.17
2019-05-22T19:16:02.412Z,75.15
2019-05-22T19:18:30.288Z,75.37
2019-05-22T19:20:57.967Z,75.28
2019-05-22T19:23:25.854Z,75.45
2019-05-22T19:25:53.601Z,75.36
2019-05-22T19:28:21.723Z,75.51
2019-05-22T19:30:49.591Z,75.47
2019-05-22T19:33:17.336Z,75.71
2019-05-22T19:35:45.095Z,75.82
2019-05-22T19:38:13.057Z,76.10
2019-05-22T19:40:40.904Z,76.17
2019-05-22T19:43:09.227Z,76.25
2019-05-22T19:45:37.023Z,76.46
2019-05-22T19:48:05.937Z,76.69
2019-05-22T19:50:34.866Z,76.64
2019-05-22T19:53:18.318Z,76.84
2019-05-22T19:55:33.525Z,77.11
2019-05-22T19:58:01.523Z,77.19
2019-05-22T20:00:31.832Z,77.62
2019-05-22T20:02:59.589Z,77.63
2019-05-22T20:05:27.335Z,77.78
2019-05-22T20:07:55.603Z,77.93
2019-05-22T20:10:23.345Z,78.17
2019-05-22T20:12:51.092Z,78.15
2019-05-22T20:15:19.247Z,78.37
2019-05-22T20:17:47.372Z,78.58
2019-05-22T20:20:15.966Z,78.79
2019-05-22T20:22:44.562Z,79.02
2019-05-22T20:25:12.837Z,79.30
2019-05-22T20:27:41.680Z,79.58
2019-05-22T20:30:10.412Z,79.69
2019-05-22T20:32:38.236Z,80.03
2019-05-22T20:35:07.220Z,80.24
2019-05-22T20:37:35.190Z,80.30
2019-05-22T20:40:04.115Z,80.59
2019-05-22T20:42:33.120Z,80.57
2019-05-22T20:45:01.650Z,80.67
2019-05-22T20:47:29.398Z,80.91
2019-05-22T20:49:57.432Z,80.92
2019-05-22T20:52:25.201Z,80.95
2019-05-22T20:54:53.798Z,80.99
2019-05-22T20:57:22.315Z,81.08
2019-05-22T20:59:50.428Z,81.08
2019-05-22T21:02:19.859Z,81.09
2019-05-22T21:04:48.037Z,81.00
2019-05-22T21:07:16.691Z,81.02
2019-05-22T21:09:44.448Z,80.86
2019-05-22T21:12:12.565Z,80.90
2019-05-22T21:14:41.085Z,80.84
2019-05-22T21:17:09.474Z,80.84
2019-05-22T21:19:37.677Z,80.84
2019-05-22T21:22:06.537Z,80.80
2019-05-22T21:24:36.428Z,80.91
2019-05-22T21:27:06.077Z,80.87
2019-05-22T21:29:33.950Z,80.92
2019-05-22T21:32:01.688Z,81.12
2019-05-22T21:34:29.917Z,81.19
2019-05-22T21:36:57.784Z,81.11
2019-05-22T21:39:25.893Z,81.12
2019-05-22T21:41:53.739Z,81.32
2019-05-22T21:44:21.550Z,81.32
2019-05-22T21:46:49.267Z,81.40
2019-05-22T21:49:18.687Z,81.45
2019-05-22T21:51:46.816Z,81.48
2019-05-22T21:54:14.744Z,81.52
2019-05-22T21:56:42.869Z,81.52
2019-05-22T21:59:11.022Z,81.58
2019-05-22T22:01:40.411Z,81.50
2019-05-22T22:04:09.910Z,81.42
2019-05-22T22:06:37.724Z,81.37
2019-05-22T22:09:07.568Z,81.24
2019-05-22T22:11:35.405Z,81.03
2019-05-22T22:14:03.210Z,80.92
2019-05-22T22:16:30.990Z,80.61
2019-05-22T22:18:59.921Z,80.48
2019-05-22T22:21:28.290Z,80.25
2019-05-22T22:23:56.174Z,80.10
2019-05-22T22:26:26.396Z,79.91
2019-05-22T22:28:53.534Z,79.80
2019-05-22T22:31:22.940Z,79.64
2019-05-22T22:33:52.313Z,79.53
2019-05-22T22:36:20.096Z,79.37
2019-05-22T22:38:48.815Z,79.04
2019-05-22T22:41:16.629Z,79.10
2019-05-22T22:43:45.077Z,79.18
2019-05-22T22:46:18.881Z,78.92
2019-05-22T22:48:48.482Z,78.79
2019-05-22T22:51:17.942Z,78.70
2019-05-22T22:53:45.685Z,78.85
2019-05-22T22:56:13.749Z,78.70
2019-05-22T22:58:42.713Z,78.82
2019-05-22T23:01:13.283Z,78.68
2019-05-22T23:03:41.019Z,78.58
2019-05-22T23:06:10.749Z,78.83
2019-05-22T23:08:39.745Z,78.87
2019-05-22T23:11:09.217Z,78.80
2019-05-22T23:13:37.379Z,78.85
2019-05-22T23:16:06.594Z,78.87
2019-05-22T23:18:43.624Z,78.99
2019-05-22T23:21:12.514Z,78.97
2019-05-22T23:23:40.944Z,78.73
2019-05-22T23:26:09.117Z,79.00
2019-05-22T23:28:40.652Z,78.99
2019-05-22T23:31:07.457Z,78.93
2019-05-22T23:33:37.796Z,78.94
2019-05-22T23:36:05.617Z,79.09
2019-05-22T23:38:33.835Z,79.09
2019-05-22T23:41:02.041Z,79.31
2019-05-22T23:43:29.741Z,79.37
2019-05-22T23:45:58.566Z,79.49
2019-05-22T23:48:27.982Z,79.83
2019-05-22T23:50:56.403Z,79.99
2019-05-22T23:53:25.219Z,80.17
2019-05-22T23:55:54.175Z,80.34
2019-05-22T23:58:23.062Z,80.69
